Time;durP1;ratioP1;P1;durP2;ratioP2;P2;SDS_P1;SDS_P2;PMS_P1;PMS_P2;Temp;Humidity;BMP_temperature;BMP_pressure;BME280_temperature;BME280_humidity;BME280_pressure;Samples;Min_cycle;Max_cycle;Signal;HPM_P1;HPM_P2
2022/07/10 00:02:23;;;;;;;0.50;0.50;;;20.90;51.80;;;;;;6284762;22;20140;-91
2022/07/10 00:04:54;;;;;;;0.52;0.50;;;20.90;51.70;;;;;;6285247;22;20165;-90
2022/07/10 00:07:19;;;;;;;0.60;0.60;;;20.90;51.70;;;;;;6285163;22;20129;-90
2022/07/10 00:09:47;;;;;;;0.55;0.55;;;20.90;51.70;;;;;;6259036;22;20141;-90
2022/07/10 00:12:13;;;;;;;0.52;0.52;;;20.90;51.70;;;;;;6259496;22;20171;-90
2022/07/10 00:14:43;;;;;;;0.60;0.60;;;20.90;51.80;;;;;;6284161;22;20137;-90
2022/07/10 00:17:12;;;;;;;0.55;0.55;;;20.90;51.80;;;;;;6259517;22;20148;-89
2022/07/10 00:19:44;;;;;;;0.50;0.50;;;20.90;51.80;;;;;;6260019;22;20152;-90
2022/07/10 00:22:11;;;;;;;0.60;0.60;;;20.80;52.50;;;;;;6258245;22;20190;-89
2022/07/10 00:24:38;;;;;;;0.60;0.60;;;20.90;51.70;;;;;;6283360;22;20623;-91
2022/07/10 00:27:05;;;;;;;0.73;0.73;;;20.90;51.90;;;;;;6257937;22;20145;-90
2022/07/10 00:29:31;;;;;;;0.60;0.60;;;20.90;51.90;;;;;;6258503;22;20148;-90
2022/07/10 00:31:58;;;;;;;1.08;0.50;;;20.90;51.90;;;;;;6283828;22;20125;-90
2022/07/10 00:34:27;;;;;;;0.60;0.60;;;20.90;51.90;;;;;;6261375;22;20216;-91
2022/07/10 00:36:55;;;;;;;0.50;0.50;;;20.90;51.90;;;;;;6264154;22;20215;-90
2022/07/10 00:39:22;;;;;;;0.60;0.60;;;20.90;51.90;;;;;;6196453;23;20158;-90
2022/07/10 00:41:49;;;;;;;0.60;0.60;;;20.90;51.90;;;;;;6170337;23;20157;-90
2022/07/10 00:44:15;;;;;;;0.70;0.70;;;20.80;51.80;;;;;;6169112;23;20206;-91
2022/07/10 00:46:41;;;;;;;0.70;0.70;;;20.80;51.80;;;;;;6171013;23;20149;-90
2022/07/10 00:49:08;;;;;;;0.60;0.60;;;20.80;51.90;;;;;;6171278;23;20142;-90
2022/07/10 00:51:36;;;;;;;0.63;0.63;;;20.90;51.90;;;;;;6195756;23;20150;-90
2022/07/10 00:54:03;;;;;;;0.50;0.50;;;20.80;52.00;;;;;;6170602;23;20600;-89
2022/07/10 00:56:32;;;;;;;0.60;0.60;;;20.80;52.00;;;;;;6170321;23;20149;-89
2022/07/10 00:59:01;;;;;;;0.65;0.65;;;20.90;51.90;;;;;;6171299;23;20150;-90
2022/07/10 01:01:26;;;;;;;0.55;0.55;;;20.90;51.90;;;;;;6171736;23;20153;-90
2022/07/10 01:03:52;;;;;;;0.50;0.50;;;20.90;51.80;;;;;;6197343;23;20174;-91
2022/07/10 01:06:18;;;;;;;0.60;0.60;;;20.90;51.90;;;;;;6171546;23;20154;-90
2022/07/10 01:08:45;;;;;;;0.73;0.73;;;20.90;52.00;;;;;;6172159;23;20232;-91
2022/07/10 01:11:14;;;;;;;0.60;0.60;;;20.90;52.00;;;;;;6196358;23;20154;-91
2022/07/10 01:13:43;;;;;;;0.60;0.60;;;20.80;52.00;;;;;;6170885;23;20493;-89
2022/07/10 01:16:11;;;;;;;0.75;0.75;;;20.80;51.90;;;;;;6193090;22;20269;-91
2022/07/10 01:18:39;;;;;;;0.60;0.60;;;20.90;52.10;;;;;;6262245;22;20610;-89
2022/07/10 01:21:05;;;;;;;0.50;0.50;;;20.80;52.00;;;;;;6288676;22;20131;-90
2022/07/10 01:23:35;;;;;;;0.60;0.60;;;20.90;52.10;;;;;;6261704;22;20155;-90
2022/07/10 01:26:04;;;;;;;0.60;0.60;;;20.80;52.60;;;;;;6263092;22;20147;-91
2022/07/10 01:28:30;;;;;;;0.70;0.65;;;20.80;52.00;;;;;;6288284;22;20203;-91
2022/07/10 01:30:56;;;;;;;0.60;0.60;;;20.80;52.10;;;;;;6263094;22;20156;-90
2022/07/10 01:33:23;;;;;;;0.60;0.60;;;20.80;52.10;;;;;;6262909;22;20147;-89
2022/07/10 01:35:50;;;;;;;0.50;0.50;;;20.80;52.10;;;;;;6283596;22;20191;-90
2022/07/10 01:38:17;;;;;;;0.50;0.50;;;20.80;52.00;;;;;;6258599;22;20140;-89
2022/07/10 01:40:44;;;;;;;0.68;0.68;;;20.80;52.00;;;;;;6283247;22;20129;-91
2022/07/10 01:43:13;;;;;;;0.60;0.60;;;20.80;52.10;;;;;;6258017;22;20164;-92
2022/07/10 01:45:40;;;;;;;0.70;0.70;;;20.80;52.00;;;;;;6195502;23;20193;-90
2022/07/10 01:48:09;;;;;;;0.70;0.60;;;20.80;52.00;;;;;;6171899;23;20229;-90
2022/07/10 01:50:35;;;;;;;0.65;0.63;;;20.80;52.10;;;;;;6171313;23;20236;-90
2022/07/10 01:53:01;;;;;;;0.60;0.60;;;20.80;52.00;;;;;;6170850;23;20188;-90
2022/07/10 01:55:26;;;;;;;0.60;0.60;;;20.80;52.10;;;;;;6171394;23;20643;-89
2022/07/10 01:57:56;;;;;;;0.60;0.60;;;20.90;52.10;;;;;;6195130;23;20161;-90
2022/07/10 02:00:23;;;;;;;0.60;0.60;;;20.80;52.00;;;;;;6195384;23;20160;-90
2022/07/10 02:05:34;;;;;;;0.77;0.77;;;20.80;52.10;;;;;;6200033;23;20189;-90
2022/07/10 02:07:59;;;;;;;0.50;0.50;;;20.80;52.10;;;;;;6171901;23;20138;-89
2022/07/10 02:10:30;;;;;;;0.52;0.52;;;20.80;52.10;;;;;;6171566;23;20150;-90
2022/07/10 02:12:56;;;;;;;0.60;0.60;;;20.80;52.00;;;;;;6170480;23;20177;-90
2022/07/10 02:15:22;;;;;;;0.57;0.57;;;20.80;52.10;;;;;;6196980;22;20582;-90
2022/07/10 02:17:50;;;;;;;0.55;0.55;;;20.80;52.10;;;;;;6258619;22;20152;-90
2022/07/10 02:20:17;;;;;;;0.50;0.50;;;20.80;52.10;;;;;;6258351;22;20140;-91
2022/07/10 02:22:50;;;;;;;0.57;0.50;;;20.80;52.20;;;;;;6283328;22;20140;-89
2022/07/10 02:25:16;;;;;;;0.60;0.60;;;20.80;52.30;;;;;;6233869;22;20215;-90
2022/07/10 02:27:43;;;;;;;0.70;0.70;;;20.80;52.10;;;;;;6259193;22;20141;-90
2022/07/10 02:30:10;;;;;;;0.60;0.60;;;20.80;52.20;;;;;;6259888;22;20226;-90
2022/07/10 02:32:36;;;;;;;0.80;0.80;;;20.80;52.40;;;;;;6285837;22;20129;-90
2022/07/10 02:35:02;;;;;;;0.70;0.60;;;20.80;52.20;;;;;;6259985;22;20188;-92
2022/07/10 02:37:28;;;;;;;0.60;0.60;;;20.70;52.30;;;;;;6259880;22;20144;-90
2022/07/10 02:39:55;;;;;;;0.82;0.82;;;20.80;52.30;;;;;;6260237;22;20232;-91
2022/07/10 02:42:21;;;;;;;0.60;0.60;;;20.80;52.30;;;;;;6260431;22;20148;-89
2022/07/10 02:44:47;;;;;;;0.60;0.60;;;20.80;52.40;;;;;;6260927;22;20199;-90
2022/07/10 02:47:13;;;;;;;0.57;0.57;;;20.80;52.40;;;;;;6261158;22;20139;-90
2022/07/10 02:49:40;;;;;;;0.57;0.57;;;20.80;52.30;;;;;;6261213;22;20141;-89
2022/07/10 02:52:07;;;;;;;0.52;0.52;;;20.80;52.40;;;;;;6261659;22;20160;-89
2022/07/10 02:54:38;;;;;;;0.60;0.60;;;20.80;52.30;;;;;;6200211;23;20149;-90
2022/07/10 02:57:08;;;;;;;0.50;0.50;;;20.90;52.40;;;;;;6150635;23;20182;-89
2022/07/10 02:59:36;;;;;;;1.13;0.80;;;20.80;52.40;;;;;;6139340;23;20173;-89
2022/07/10 03:02:02;;;;;;;0.57;0.57;;;20.80;52.40;;;;;;6115368;23;20151;-90
2022/07/10 03:04:32;;;;;;;0.60;0.60;;;20.80;52.30;;;;;;6114657;23;20254;-89
2022/07/10 03:06:58;;;;;;;0.60;0.60;;;20.80;52.30;;;;;;6139671;23;20259;-90
2022/07/10 03:09:28;;;;;;;0.50;0.50;;;20.80;52.40;;;;;;6115195;23;20517;-90
2022/07/10 03:11:57;;;;;;;0.60;0.60;;;20.80;52.40;;;;;;6116033;23;20651;-90
2022/07/10 03:14:23;;;;;;;0.55;0.55;;;20.80;52.50;;;;;;6140190;23;20155;-89
2022/07/10 03:16:48;;;;;;;0.63;0.52;;;20.70;52.30;;;;;;6115015;23;20203;-90
2022/07/10 03:19:14;;;;;;;0.70;0.70;;;20.70;52.30;;;;;;6115329;23;20154;-90
2022/07/10 03:21:41;;;;;;;0.52;0.52;;;20.80;52.40;;;;;;6140111;23;20139;-90
2022/07/10 03:24:08;;;;;;;0.50;0.50;;;20.70;52.30;;;;;;6115248;23;20202;-89
2022/07/10 03:26:36;;;;;;;0.70;0.70;;;20.80;52.50;;;;;;6223528;23;20650;-89
2022/07/10 03:29:05;;;;;;;0.77;0.70;;;20.80;52.50;;;;;;6229115;23;20245;-90
2022/07/10 03:31:31;;;;;;;0.50;0.50;;;20.70;52.30;;;;;;6220259;23;20216;-90
2022/07/10 03:34:03;;;;;;;0.50;0.50;;;20.80;52.60;;;;;;6168569;23;20150;-90
2022/07/10 03:36:29;;;;;;;0.60;0.60;;;20.80;52.50;;;;;;6133741;23;20227;-90
2022/07/10 03:38:55;;;;;;;0.60;0.60;;;20.80;52.50;;;;;;6062084;23;20178;-90
2022/07/10 03:41:23;;;;;;;0.50;0.50;;;20.80;52.60;;;;;;6063384;23;20156;-91
2022/07/10 03:43:52;;;;;;;0.60;0.60;;;20.80;52.60;;;;;;6086693;23;20152;-90
2022/07/10 03:46:23;;;;;;;0.50;0.50;;;20.80;52.60;;;;;;6087382;23;20148;-90
2022/07/10 03:48:53;;;;;;;0.50;0.50;;;20.80;52.60;;;;;;6087532;23;20477;-90
2022/07/10 03:51:26;;;;;;;0.60;0.60;;;20.70;52.50;;;;;;6060354;23;20177;-89
2022/07/10 03:53:57;;;;;;;0.60;0.60;;;20.70;52.40;;;;;;6084278;23;20592;-88
2022/07/10 03:59:33;;;;;;;0.60;0.60;;;20.80;52.70;;;;;;6087495;23;20184;-89
2022/07/10 04:02:18;;;;;;;0.70;0.60;;;20.80;52.60;;;;;;6059248;23;20157;-89
2022/07/10 04:04:59;;;;;;;0.52;0.52;;;20.90;52.60;;;;;;6027090;23;20201;-89
2022/07/10 04:07:40;;;;;;;0.40;0.40;;;20.90;52.50;;;;;;6054458;23;20281;-90
2022/07/10 04:10:11;;;;;;;0.73;0.57;;;20.90;52.40;;;;;;6084258;23;20171;-89
2022/07/10 04:12:56;;;;;;;0.70;0.70;;;20.90;52.30;;;;;;6011775;23;20170;-89
2022/07/10 04:15:52;;;;;;;0.50;0.50;;;20.90;52.30;;;;;;6038146;23;20164;-89
2022/07/10 04:18:50;;;;;;;0.50;0.50;;;20.90;52.30;;;;;;6105992;23;20149;-89
2022/07/10 04:21:23;;;;;;;0.45;0.45;;;20.90;52.30;;;;;;6054642;23;20153;-88
2022/07/10 04:23:59;;;;;;;0.82;0.60;;;21.00;52.30;;;;;;6050619;23;20209;-90
2022/07/10 04:26:29;;;;;;;0.60;0.60;;;21.00;52.30;;;;;;5993108;24;20757;-89
2022/07/10 04:29:09;;;;;;;0.50;0.50;;;20.90;52.30;;;;;;5947073;24;20652;-88
2022/07/10 04:31:38;;;;;;;0.50;0.50;;;21.00;52.30;;;;;;5942406;24;20167;-90
2022/07/10 04:34:08;;;;;;;0.57;0.57;;;20.90;52.30;;;;;;5943254;24;20156;-89
2022/07/10 04:36:36;;;;;;;0.57;0.57;;;21.00;52.40;;;;;;5940959;24;20331;-88
2022/07/10 04:39:07;;;;;;;0.60;0.60;;;21.00;52.20;;;;;;5988948;24;20229;-89
2022/07/10 04:41:33;;;;;;;0.60;0.60;;;21.00;52.30;;;;;;6014623;23;20171;-88
2022/07/10 04:44:04;;;;;;;0.70;0.70;;;21.00;52.30;;;;;;5989547;24;20256;-88
2022/07/10 04:46:36;;;;;;;0.65;0.65;;;21.00;52.20;;;;;;5967171;23;20180;-89
2022/07/10 04:49:06;;;;;;;0.60;0.60;;;21.00;52.40;;;;;;5941646;24;20156;-89
2022/07/10 04:51:32;;;;;;;0.50;0.50;;;20.90;52.30;;;;;;5987457;24;20191;-89
2022/07/10 04:54:03;;;;;;;0.60;0.60;;;21.00;52.30;;;;;;5991494;24;20186;-89
2022/07/10 04:56:32;;;;;;;0.43;0.43;;;21.00;52.30;;;;;;6007437;23;20164;-90
2022/07/10 04:58:59;;;;;;;0.60;0.60;;;21.00;52.40;;;;;;5935393;24;20240;-89
2022/07/10 05:01:27;;;;;;;0.63;0.63;;;21.00;52.40;;;;;;5985866;24;20156;-89
2022/07/10 05:03:52;;;;;;;0.43;0.43;;;21.00;52.40;;;;;;5987050;24;20163;-89
2022/07/10 05:06:19;;;;;;;0.60;0.60;;;21.00;52.50;;;;;;5987151;24;20160;-89
2022/07/10 05:08:49;;;;;;;0.38;0.38;;;21.00;52.40;;;;;;6028504;23;20233;-90
2022/07/10 05:11:19;;;;;;;0.60;0.60;;;21.00;52.40;;;;;;6043467;23;20162;-90
2022/07/10 05:13:48;;;;;;;0.55;0.55;;;21.00;52.50;;;;;;6095908;23;20158;-89
2022/07/10 05:16:14;;;;;;;0.47;0.47;;;21.00;52.50;;;;;;6084669;23;20169;-89
2022/07/10 05:18:45;;;;;;;0.55;0.55;;;21.00;52.50;;;;;;6053325;23;20158;-89
2022/07/10 05:21:13;;;;;;;0.50;0.50;;;20.90;52.50;;;;;;6123532;23;20159;-89
2022/07/10 05:23:39;;;;;;;0.60;0.60;;;20.90;52.60;;;;;;6139200;23;20147;-89
2022/07/10 05:26:07;;;;;;;0.60;0.60;;;20.90;52.60;;;;;;6106354;23;20148;-89
2022/07/10 05:28:42;;;;;;;0.40;0.40;;;20.90;52.60;;;;;;6081377;23;20152;-90
2022/07/10 05:31:10;;;;;;;0.50;0.50;;;20.90;52.60;;;;;;6082167;23;20152;-90
2022/07/10 05:33:40;;;;;;;0.57;0.57;;;21.00;52.70;;;;;;6057094;23;20169;-89
2022/07/10 05:36:09;;;;;;;0.60;0.60;;;20.90;52.60;;;;;;6058728;23;20204;-90
2022/07/10 05:38:43;;;;;;;0.60;0.60;;;20.90;52.60;;;;;;6058793;23;20236;-90
2022/07/10 05:41:12;;;;;;;0.52;0.52;;;20.90;52.60;;;;;;6058890;23;20160;-89
2022/07/10 05:43:43;;;;;;;0.50;0.50;;;20.90;52.70;;;;;;6057311;23;20547;-88
2022/07/10 05:46:21;;;;;;;0.60;0.60;;;20.90;52.60;;;;;;6137655;23;20151;-89
2022/07/10 05:48:50;;;;;;;0.45;0.43;;;20.90;52.60;;;;;;6094468;23;20738;-89
2022/07/10 05:51:19;;;;;;;0.55;0.55;;;20.90;52.60;;;;;;6114046;23;20151;-89
2022/07/10 05:53:46;;;;;;;0.50;0.50;;;20.90;52.50;;;;;;6087500;23;20148;-88
2022/07/10 05:56:15;;;;;;;0.60;0.60;;;20.90;52.50;;;;;;6116237;23;20147;-90
2022/07/10 05:58:46;;;;;;;0.50;0.50;;;20.90;52.60;;;;;;6120299;23;20201;-89
2022/07/10 06:01:12;;;;;;;0.40;0.40;;;21.00;52.50;;;;;;6085656;23;20235;-89
2022/07/10 06:03:46;;;;;;;1.02;0.60;;;21.00;53.10;;;;;;6023645;23;20151;-89
2022/07/10 06:06:16;;;;;;;0.60;0.60;;;21.00;52.40;;;;;;5994308;24;20595;-89
2022/07/10 06:08:45;;;;;;;0.50;0.50;;;21.00;52.50;;;;;;5970882;23;20246;-89
2022/07/10 06:11:20;;;;;;;0.60;0.60;;;21.00;52.40;;;;;;5994693;23;20194;-89
2022/07/10 06:13:56;;;;;;;;;;;;;;;;;;;;;
2022/07/10 06:16:36;;;;;;;0.50;0.50;;;21.00;52.50;;;;;;5996273;23;20171;-89
2022/07/10 06:19:09;;;;;;;0.68;0.68;;;21.00;52.50;;;;;;5994954;23;20159;-89
2022/07/10 06:21:43;;;;;;;0.40;0.40;;;21.00;52.40;;;;;;5994997;23;20219;-90
2022/07/10 06:24:18;;;;;;;0.47;0.47;;;21.10;52.50;;;;;;6010548;23;20188;-90
2022/07/10 06:26:50;;;;;;;0.60;0.60;;;21.10;52.40;;;;;;5994974;23;20158;-90
2022/07/10 06:29:19;;;;;;;0.60;0.60;;;21.10;52.40;;;;;;5994836;24;20204;-89
2022/07/10 06:31:49;;;;;;;0.70;0.70;;;21.10;52.40;;;;;;5972712;24;20152;-90
2022/07/10 06:34:23;;;;;;;0.50;0.50;;;21.00;53.00;;;;;;5960367;23;20576;-89
2022/07/10 06:36:58;;;;;;;0.57;0.57;;;21.10;52.40;;;;;;6090872;23;20200;-90
2022/07/10 06:39:34;;;;;;;0.60;0.60;;;21.10;52.30;;;;;;6085999;23;20210;-90
2022/07/10 06:42:19;;;;;;;0.40;0.40;;;21.10;52.30;;;;;;6086645;23;20230;-89
2022/07/10 06:44:56;;;;;;;0.57;0.57;;;21.20;52.20;;;;;;6084145;23;20292;-89
2022/07/10 06:50:08;;;;;;;0.50;0.50;;;21.20;52.20;;;;;;6061389;23;20153;-90
2022/07/10 06:52:39;;;;;;;0.50;0.50;;;21.20;52.20;;;;;;6027049;23;20154;-90
2022/07/10 06:55:08;;;;;;;0.50;0.50;;;21.20;52.10;;;;;;6002013;23;20158;-90
2022/07/10 06:57:41;;;;;;;0.50;0.50;;;21.30;52.10;;;;;;6041784;23;20179;-89
2022/07/10 07:00:13;;;;;;;0.63;0.60;;;21.20;52.10;;;;;;6047069;23;20631;-90
2022/07/10 07:02:41;;;;;;;0.52;0.52;;;21.30;52.00;;;;;;6024424;23;20607;-89
2022/07/10 07:05:21;;;;;;;0.50;0.50;;;21.30;52.00;;;;;;6000109;23;20195;-90
2022/07/10 07:08:00;;;;;;;0.50;0.50;;;21.30;51.80;;;;;;6000577;23;20154;-90
2022/07/10 07:10:49;;;;;;;0.50;0.50;;;21.30;51.90;;;;;;6018032;23;20155;-89
2022/07/10 07:13:35;;;;;;;0.60;0.60;;;21.20;51.90;;;;;;5968766;24;20152;-89
2022/07/10 07:16:18;;;;;;;0.40;0.40;;;21.20;52.00;;;;;;6057965;23;20520;-89
2022/07/10 07:18:54;;;;;;;0.50;0.50;;;21.30;51.90;;;;;;6050708;23;20158;-90
2022/07/10 07:24:19;;;;;;;0.40;0.40;;;21.30;51.90;;;;;;5989515;24;20202;-90
2022/07/10 07:27:15;;;;;;;;;;;;;;;;;;;;;
2022/07/10 07:29:59;;;;;;;0.50;0.50;;;21.40;51.80;;;;;;6001272;23;20760;-90
2022/07/10 07:32:33;;;;;;;0.40;0.40;;;21.30;51.90;;;;;;6079127;23;20223;-90
2022/07/10 07:35:07;;;;;;;0.40;0.40;;;21.40;51.80;;;;;;6054936;23;20158;-90
2022/07/10 07:37:51;;;;;;;0.55;0.55;;;21.40;51.80;;;;;;6000132;23;20162;-89
2022/07/10 07:40:22;;;;;;;0.45;0.45;;;21.40;51.90;;;;;;6021901;23;20563;-90
2022/07/10 07:42:54;;;;;;;0.50;0.50;;;21.40;51.80;;;;;;5966266;24;20152;-89
2022/07/10 07:45:24;;;;;;;0.50;0.50;;;21.40;51.70;;;;;;5936209;24;20192;-89
2022/07/10 07:47:56;;;;;;;0.40;0.40;;;21.50;51.80;;;;;;5892742;24;20203;-90
2022/07/10 07:50:31;;;;;;;0.50;0.50;;;21.50;51.70;;;;;;5862199;24;20159;-89
2022/07/10 07:53:13;;;;;;;0.68;0.40;;;21.50;51.70;;;;;;5857578;24;20165;-90
2022/07/10 07:55:44;;;;;;;0.50;0.50;;;21.50;51.60;;;;;;5886020;24;20163;-89
2022/07/10 07:58:21;;;;;;;0.45;0.45;;;21.50;51.60;;;;;;5937884;24;20161;-90
2022/07/10 08:00:56;;;;;;;0.43;0.43;;;21.50;51.50;;;;;;5959395;24;20161;-90
2022/07/10 08:03:25;;;;;;;0.60;0.60;;;21.50;51.60;;;;;;5961311;24;20164;-89
2022/07/10 08:06:00;;;;;;;0.40;0.40;;;21.50;52.20;;;;;;5885666;24;20205;-90
2022/07/10 08:08:27;;;;;;;0.43;0.43;;;21.50;51.40;;;;;;5895499;24;20171;-90
2022/07/10 08:10:57;;;;;;;0.50;0.50;;;21.50;51.30;;;;;;5939118;24;20182;-90
2022/07/10 08:13:26;;;;;;;0.50;0.50;;;21.50;51.30;;;;;;5988603;24;20155;-89
2022/07/10 08:15:59;;;;;;;0.45;0.45;;;21.50;51.40;;;;;;5971146;23;20163;-90
2022/07/10 08:18:30;;;;;;;0.50;0.50;;;21.50;51.40;;;;;;5970586;24;20155;-90
2022/07/10 08:21:03;;;;;;;0.50;0.50;;;21.60;51.30;;;;;;5993171;23;20180;-91
2022/07/10 08:23:29;;;;;;;0.45;0.45;;;21.60;51.20;;;;;;5993406;23;20596;-89
2022/07/10 08:25:59;;;;;;;0.47;0.47;;;21.60;51.20;;;;;;5976217;23;20194;-89
2022/07/10 08:28:26;;;;;;;0.50;0.50;;;21.60;51.20;;;;;;6027265;23;20153;-91
2022/07/10 08:30:53;;;;;;;0.40;0.40;;;21.50;51.90;;;;;;6077274;23;20157;-90
2022/07/10 08:33:20;;;;;;;0.50;0.50;;;21.50;51.30;;;;;;6086032;23;20157;-89
2022/07/10 08:35:46;;;;;;;0.40;0.40;;;21.60;51.20;;;;;;6164128;23;20191;-90
2022/07/10 08:38:13;;;;;;;0.40;0.40;;;21.60;51.20;;;;;;6092515;23;20602;-89
2022/07/10 08:40:42;;;;;;;0.40;0.40;;;21.50;51.20;;;;;;6116389;23;20151;-90
2022/07/10 08:43:15;;;;;;;0.30;0.30;;;21.50;51.20;;;;;;6130946;23;20146;-89
2022/07/10 08:45:45;;;;;;;0.40;0.40;;;21.50;51.20;;;;;;6206430;23;20226;-90
2022/07/10 08:48:11;;;;;;;0.40;0.40;;;21.50;51.20;;;;;;6205815;23;20145;-91
2022/07/10 08:50:44;;;;;;;0.40;0.40;;;21.50;51.30;;;;;;6230687;23;20156;-90
2022/07/10 08:53:20;;;;;;;0.40;0.40;;;21.50;51.30;;;;;;6205796;23;20164;-90
2022/07/10 08:55:46;;;;;;;0.32;0.32;;;21.50;51.40;;;;;;6206888;23;20149;-90
2022/07/10 08:58:13;;;;;;;0.40;0.40;;;21.50;51.40;;;;;;6203290;23;20218;-91
2022/07/10 09:00:40;;;;;;;0.40;0.40;;;21.40;51.40;;;;;;6206297;23;20163;-90
2022/07/10 09:03:10;;;;;;;0.40;0.40;;;21.30;51.60;;;;;;6205460;23;20589;-90
2022/07/10 09:05:36;;;;;;;0.30;0.30;;;21.20;51.70;;;;;;6199428;23;20193;-90
2022/07/10 09:08:05;;;;;;;0.40;0.40;;;21.10;52.10;;;;;;6199856;23;20142;-91
2022/07/10 09:10:32;;;;;;;0.30;0.30;;;21.10;52.00;;;;;;6200130;23;20153;-90
2022/07/10 09:13:02;;;;;;;0.45;0.45;;;21.00;52.20;;;;;;6187874;23;20149;-91
2022/07/10 09:15:31;;;;;;;0.40;0.40;;;20.90;52.40;;;;;;6204667;23;20157;-90
2022/07/10 09:18:01;;;;;;;0.52;0.30;;;20.90;52.50;;;;;;6199752;23;20154;-91
2022/07/10 09:20:31;;;;;;;0.40;0.40;;;20.90;52.80;;;;;;6199987;23;20158;-90
2022/07/10 09:23:10;;;;;;;0.43;0.43;;;20.80;52.80;;;;;;6139938;23;20152;-90
2022/07/10 09:25:35;;;;;;;0.30;0.30;;;20.80;52.90;;;;;;6058567;23;20655;-89
2022/07/10 09:28:05;;;;;;;0.40;0.40;;;20.70;52.90;;;;;;6079427;23;20149;-90
2022/07/10 09:30:35;;;;;;;0.30;0.30;;;20.70;53.00;;;;;;6058338;23;20539;-90
2022/07/10 09:33:29;;;;;;;0.40;0.40;;;20.70;53.00;;;;;;6081714;23;20157;-90
2022/07/10 09:38:49;;;;;;;0.40;0.40;;;20.60;53.30;;;;;;6090800;23;20166;-90
2022/07/10 09:41:30;;;;;;;0.30;0.30;;;20.60;53.30;;;;;;6087052;23;20144;-89
2022/07/10 09:44:11;;;;;;;0.40;0.40;;;20.60;53.50;;;;;;6085712;23;20175;-89
2022/07/10 09:46:38;;;;;;;0.20;0.20;;;20.60;53.50;;;;;;6062772;23;20156;-89
2022/07/10 09:49:11;;;;;;;0.20;0.20;;;20.50;53.70;;;;;;6062968;23;20147;-90
2022/07/10 09:51:42;;;;;;;0.43;0.43;;;20.50;53.70;;;;;;6087644;23;20148;-91
2022/07/10 09:54:10;;;;;;;0.28;0.28;;;20.50;53.80;;;;;;6097419;23;20212;-91
2022/07/10 09:56:43;;;;;;;0.20;0.20;;;20.50;53.80;;;;;;6178608;23;20204;-90
2022/07/10 09:59:13;;;;;;;0.30;0.30;;;20.50;53.80;;;;;;6179088;23;20149;-90
2022/07/10 10:01:49;;;;;;;0.30;0.30;;;20.50;53.70;;;;;;6180382;23;20149;-90
2022/07/10 10:04:16;;;;;;;0.30;0.30;;;20.50;53.70;;;;;;6204650;23;20226;-90
2022/07/10 10:06:51;;;;;;;0.30;0.30;;;20.40;53.80;;;;;;6105441;23;20211;-90
2022/07/10 10:09:24;;;;;;;0.38;0.38;;;20.40;53.90;;;;;;6073768;23;20163;-90
2022/07/10 10:12:07;;;;;;;0.40;0.40;;;20.40;53.90;;;;;;6134521;23;20148;-90
2022/07/10 10:14:34;;;;;;;0.38;0.38;;;20.40;54.00;;;;;;6110548;23;20159;-90
2022/07/10 10:17:00;;;;;;;0.30;0.30;;;20.40;54.10;;;;;;6104938;23;20243;-90
2022/07/10 10:22:11;;;;;;;0.40;0.40;;;20.40;54.10;;;;;;6084470;23;20180;-90
2022/07/10 10:24:38;;;;;;;0.32;0.32;;;20.30;54.10;;;;;;6081731;23;20184;-90
2022/07/10 10:27:05;;;;;;;0.38;0.38;;;20.40;54.20;;;;;;6080822;23;20315;-89
2022/07/10 10:29:35;;;;;;;0.30;0.30;;;20.30;54.20;;;;;;6080817;23;20218;-90
2022/07/10 10:32:01;;;;;;;0.30;0.30;;;20.30;54.10;;;;;;6081910;23;20157;-90
2022/07/10 10:34:39;;;;;;;0.40;0.40;;;20.30;54.20;;;;;;6082097;23;20595;-89
2022/07/10 10:37:07;;;;;;;0.30;0.30;;;20.30;54.20;;;;;;6120921;23;20195;-90
2022/07/10 10:39:53;;;;;;;0.43;0.43;;;20.40;54.20;;;;;;6164122;23;20159;-90
2022/07/10 10:42:42;;;;;;;0.40;0.40;;;20.30;54.30;;;;;;6189392;23;20155;-90
2022/07/10 10:45:23;;;;;;;0.40;0.40;;;20.30;54.40;;;;;;6227682;23;20204;-90
2022/07/10 10:48:04;;;;;;;0.30;0.30;;;20.30;54.40;;;;;;6254527;22;20149;-90
2022/07/10 10:50:50;;;;;;;0.43;0.43;;;20.40;54.60;;;;;;6263631;22;20141;-90
2022/07/10 10:53:26;;;;;;;0.50;0.50;;;20.30;54.60;;;;;;6262962;22;20141;-89
2022/07/10 10:56:03;;;;;;;0.50;0.47;;;20.30;54.70;;;;;;6177358;23;20192;-90
2022/07/10 10:58:41;;;;;;;0.30;0.30;;;20.30;54.80;;;;;;6226631;23;20291;-89
2022/07/10 11:01:26;;;;;;;0.40;0.40;;;20.30;54.80;;;;;;6176941;23;20346;-90
2022/07/10 11:04:06;;;;;;;0.40;0.40;;;20.30;54.90;;;;;;6176926;23;20157;-90
2022/07/10 11:06:48;;;;;;;0.40;0.40;;;20.30;54.90;;;;;;6226002;23;20702;-89
2022/07/10 11:09:29;;;;;;;0.30;0.30;;;20.30;54.90;;;;;;6176926;23;20149;-90
2022/07/10 11:12:13;;;;;;;0.43;0.43;;;20.30;54.90;;;;;;6226492;23;20296;-89
2022/07/10 11:14:45;;;;;;;0.50;0.50;;;20.30;55.00;;;;;;6176296;23;20146;-89
2022/07/10 11:17:13;;;;;;;0.50;0.50;;;20.30;55.00;;;;;;6176356;23;20150;-90
2022/07/10 11:19:39;;;;;;;0.40;0.40;;;20.30;54.90;;;;;;6177262;23;20229;-89
2022/07/10 11:22:22;;;;;;;0.43;0.43;;;20.30;54.90;;;;;;6176588;23;20150;-89
2022/07/10 11:25:14;;;;;;;0.40;0.40;;;20.20;54.90;;;;;;6178285;23;20178;-90
2022/07/10 11:28:07;;;;;;;0.40;0.40;;;20.30;54.90;;;;;;6249686;22;20149;-89
2022/07/10 11:30:53;;;;;;;0.30;0.30;;;20.30;54.90;;;;;;6288555;22;20223;-91
2022/07/10 11:33:21;;;;;;;0.40;0.40;;;20.30;55.00;;;;;;6263081;22;20148;-90
2022/07/10 11:35:49;;;;;;;0.40;0.40;;;20.30;55.00;;;;;;6237901;22;20252;-89
2022/07/10 11:38:22;;;;;;;0.40;0.40;;;20.30;55.10;;;;;;6262614;22;20153;-89
2022/07/10 11:40:51;;;;;;;0.45;0.45;;;20.30;55.10;;;;;;6288409;22;20129;-89
2022/07/10 11:43:23;;;;;;;0.57;0.40;;;20.30;55.10;;;;;;6263674;22;20159;-89
2022/07/10 11:45:49;;;;;;;0.45;0.45;;;20.30;55.20;;;;;;6264175;22;20180;-91
2022/07/10 11:48:18;;;;;;;0.50;0.50;;;20.30;55.30;;;;;;6287713;22;20136;-89
2022/07/10 11:50:44;;;;;;;0.50;0.50;;;20.30;55.30;;;;;;6262318;22;20149;-89
2022/07/10 11:53:13;;;;;;;0.40;0.40;;;20.30;55.20;;;;;;6288272;22;20195;-89
2022/07/10 11:55:47;;;;;;;0.50;0.50;;;20.40;55.10;;;;;;6262666;22;20156;-90
2022/07/10 11:58:15;;;;;;;0.38;0.38;;;20.50;54.80;;;;;;6263706;22;20153;-90
2022/07/10 12:00:41;;;;;;;0.50;0.50;;;20.60;54.60;;;;;;6262266;22;20607;-90
2022/07/10 12:03:19;;;;;;;0.50;0.50;;;20.60;54.40;;;;;;6288039;22;20133;-89
2022/07/10 12:05:50;;;;;;;0.32;0.32;;;20.60;54.40;;;;;;6288863;22;20168;-89
2022/07/10 12:08:18;;;;;;;0.50;0.50;;;20.70;54.20;;;;;;6262611;22;20228;-90
2022/07/10 12:10:46;;;;;;;0.38;0.38;;;20.70;54.10;;;;;;6263690;22;20144;-90
2022/07/10 12:13:13;;;;;;;0.45;0.45;;;20.80;54.10;;;;;;6262648;22;20149;-88
2022/07/10 12:15:43;;;;;;;0.50;0.50;;;20.80;54.00;;;;;;6287314;22;20220;-91
2022/07/10 12:18:22;;;;;;;0.50;0.50;;;20.80;53.90;;;;;;6263052;22;20153;-89
2022/07/10 12:20:50;;;;;;;0.57;0.57;;;20.80;53.90;;;;;;6231223;23;20153;-90
2022/07/10 12:23:16;;;;;;;0.50;0.50;;;20.90;53.90;;;;;;6230254;23;20477;-89
2022/07/10 12:25:43;;;;;;;0.50;0.50;;;20.90;53.90;;;;;;6230810;23;20531;-88
2022/07/10 12:28:12;;;;;;;0.68;0.50;;;20.90;53.90;;;;;;6230208;23;20145;-89
2022/07/10 12:30:50;;;;;;;0.60;0.60;;;20.90;53.80;;;;;;6255791;23;20130;-89
2022/07/10 12:33:21;;;;;;;0.50;0.50;;;20.90;53.90;;;;;;6228340;23;20149;-89
2022/07/10 12:35:54;;;;;;;0.40;0.40;;;20.90;54.10;;;;;;6230151;23;20197;-89
2022/07/10 12:38:24;;;;;;;0.80;0.60;;;20.80;54.20;;;;;;6230715;23;20216;-89
2022/07/10 12:40:51;;;;;;;0.50;0.50;;;20.70;54.40;;;;;;6230578;23;20152;-90
2022/07/10 12:43:27;;;;;;;0.40;0.40;;;20.70;54.60;;;;;;6230609;23;20236;-88
2022/07/10 12:46:10;;;;;;;0.40;0.40;;;20.70;54.70;;;;;;6229988;23;20212;-89
2022/07/10 12:48:38;;;;;;;0.50;0.50;;;20.60;54.80;;;;;;6229874;23;20267;-89
2022/07/10 12:51:26;;;;;;;0.40;0.40;;;20.60;55.00;;;;;;6230634;23;20168;-88
2022/07/10 12:53:53;;;;;;;0.50;0.50;;;20.50;55.10;;;;;;6255029;23;20203;-89
2022/07/10 12:56:36;;;;;;;0.57;0.57;;;20.50;55.20;;;;;;6229541;23;20141;-90
2022/07/10 12:59:13;;;;;;;0.50;0.50;;;20.50;55.30;;;;;;6254860;23;20227;-89
2022/07/10 13:01:41;;;;;;;0.45;0.45;;;20.40;55.30;;;;;;6228093;23;20205;-89
2022/07/10 13:04:09;;;;;;;0.50;0.50;;;20.40;55.30;;;;;;6255557;23;20141;-89
2022/07/10 13:06:37;;;;;;;0.50;0.50;;;20.40;55.40;;;;;;6229668;23;20230;-89
2022/07/10 13:09:18;;;;;;;1.10;0.60;;;20.50;55.50;;;;;;6229817;23;20204;-90
2022/07/10 13:11:45;;;;;;;0.50;0.50;;;20.40;55.50;;;;;;6229562;23;20146;-89
2022/07/10 13:14:11;;;;;;;0.55;0.52;;;20.40;55.50;;;;;;6255577;23;20188;-89
2022/07/10 13:16:41;;;;;;;0.47;0.47;;;20.40;55.40;;;;;;6234413;22;20149;-89
2022/07/10 13:19:08;;;;;;;0.40;0.40;;;20.40;55.40;;;;;;6261381;22;20141;-89
2022/07/10 13:21:39;;;;;;;0.60;0.50;;;20.40;55.50;;;;;;6261499;22;20144;-90
2022/07/10 13:24:06;;;;;;;0.50;0.50;;;20.40;55.50;;;;;;6199317;23;20158;-90
2022/07/10 13:26:35;;;;;;;0.43;0.43;;;20.40;55.60;;;;;;6175045;23;20205;-91